Time;durP1;ratioP1;P1;durP2;ratioP2;P2;SDS_P1;SDS_P2;PMS_P1;PMS_P2;Temp;Humidity;BMP_temperature;BMP_pressure;BME280_temperature;BME280_humidity;BME280_pressure;Samples;Min_cycle;Max_cycle;Signal;HPM_P1;HPM_P2
2022/05/12 00:01:12;;;;;;;7.60;6.60;;;;;;;13.41;64.52;95375.34;5116063;28;20199;-69
2022/05/12 00:03:41;;;;;;;7.18;6.43;;;;;;;13.37;64.40;95368.16;5116917;28;20218;-69
2022/05/12 00:06:08;;;;;;;7.75;7.07;;;;;;;13.33;63.90;95368.06;5116161;28;20591;-69
2022/05/12 00:08:35;;;;;;;12.75;11.10;;;;;;;13.27;64.45;95369.50;5117076;28;20195;-69
2022/05/12 00:11:02;;;;;;;15.85;12.95;;;;;;;13.24;64.46;95379.34;5116752;28;20210;-68
2022/05/12 00:13:29;;;;;;;14.68;12.90;;;;;;;13.24;64.57;95370.22;5117136;28;20211;-68
2022/05/12 00:15:57;;;;;;;18.05;15.57;;;;;;;13.25;64.32;95380.13;5116614;28;20530;-69
2022/05/12 00:18:24;;;;;;;12.07;10.85;;;;;;;13.25;64.95;95374.59;5116381;28;20203;-69
2022/05/12 00:20:52;;;;;;;11.90;10.27;;;;;;;13.25;64.63;95380.13;5116784;28;20188;-68
2022/05/12 00:23:22;;;;;;;16.40;14.52;;;;;;;13.23;64.81;95380.50;5116478;28;20219;-68
2022/05/12 00:25:51;;;;;;;16.92;14.60;;;;;;;13.22;64.62;95367.00;5115602;28;20199;-68
2022/05/12 00:28:19;;;;;;;14.25;12.52;;;;;;;13.21;64.85;95379.22;5115976;28;20260;-68
2022/05/12 00:30:47;;;;;;;8.73;6.90;;;;;;;13.19;65.05;95376.84;5117034;28;20196;-68
2022/05/12 00:33:16;;;;;;;7.82;6.97;;;;;;;13.20;64.82;95370.13;5116950;28;20191;-68
2022/05/12 00:35:43;;;;;;;17.10;15.18;;;;;;;13.17;65.00;95375.59;5098706;28;20208;-68
2022/05/12 00:38:12;;;;;;;20.55;16.55;;;;;;;13.11;64.69;95374.25;5116324;28;20199;-68
2022/05/12 00:40:40;;;;;;;21.83;17.27;;;;;;;13.03;64.74;95373.28;5116582;28;20250;-68
2022/05/12 00:43:08;;;;;;;23.42;18.73;;;;;;;13.02;64.79;95374.47;5098634;28;20208;-68
2022/05/12 00:45:37;;;;;;;28.27;21.42;;;;;;;12.97;64.59;95370.00;5115289;28;20208;-68
2022/05/12 00:48:06;;;;;;;39.33;29.50;;;;;;;12.93;64.81;95368.34;5116936;28;20214;-68
2022/05/12 00:50:36;;;;;;;40.70;29.52;;;;;;;12.93;64.80;95371.91;5115932;28;20191;-68
2022/05/12 00:53:05;;;;;;;40.67;31.13;;;;;;;12.91;64.97;95371.44;5115263;28;20215;-68
2022/05/12 00:55:36;;;;;;;40.47;31.33;;;;;;;12.83;65.43;95366.91;5116374;28;20203;-68
2022/05/12 00:58:07;;;;;;;38.05;31.85;;;;;;;12.79;65.37;95366.03;5115328;28;20203;-68
2022/05/12 01:00:34;;;;;;;40.67;29.58;;;;;;;12.77;65.77;95382.97;5115039;28;20260;-68
2022/05/12 01:03:04;;;;;;;38.80;28.98;;;;;;;12.77;65.58;95380.22;5115417;28;20557;-68
2022/05/12 01:05:31;;;;;;;37.20;31.23;;;;;;;12.70;65.31;95382.81;5115288;28;20195;-68
2022/05/12 01:07:59;;;;;;;39.63;31.83;;;;;;;12.62;65.50;95391.31;5115275;28;20196;-68
2022/05/12 01:10:26;;;;;;;44.63;34.15;;;;;;;12.58;65.44;95382.94;5115753;28;20198;-68
2022/05/12 01:12:54;;;;;;;47.72;36.38;;;;;;;12.61;65.52;95392.50;5115090;28;20188;-68
2022/05/12 01:15:24;;;;;;;45.53;34.95;;;;;;;12.61;65.72;95389.72;5116013;28;20199;-68
2022/05/12 01:17:51;;;;;;;39.78;30.95;;;;;;;12.62;65.97;95388.53;5115692;28;20618;-68
2022/05/12 01:20:18;;;;;;;34.75;27.15;;;;;;;12.63;66.14;95392.91;5115204;28;20203;-68
2022/05/12 01:22:51;;;;;;;35.95;28.83;;;;;;;12.59;65.98;95390.06;5115735;28;20172;-68
2022/05/12 01:25:23;;;;;;;42.13;32.88;;;;;;;12.55;66.04;95382.84;5115039;28;20196;-68
2022/05/12 01:27:49;;;;;;;39.25;32.00;;;;;;;12.52;66.36;95392.66;5115763;28;20187;-68
2022/05/12 01:30:19;;;;;;;36.83;29.35;;;;;;;12.51;66.42;95391.06;5114756;28;20588;-68
2022/05/12 01:32:46;;;;;;;37.03;29.88;;;;;;;12.53;66.40;95388.75;5114989;28;20206;-68
2022/05/12 01:35:14;;;;;;;47.83;33.78;;;;;;;12.53;65.92;95389.53;5115222;28;20207;-68
2022/05/12 01:37:43;;;;;;;45.47;32.80;;;;;;;12.53;65.94;95397.84;5114687;28;20203;-68
2022/05/12 01:40:11;;;;;;;36.33;28.13;;;;;;;12.52;66.07;95400.94;5115194;28;20292;-68
2022/05/12 01:42:39;;;;;;;44.35;34.50;;;;;;;12.47;66.29;95396.50;5115089;28;20184;-68
2022/05/12 01:45:08;;;;;;;55.13;37.03;;;;;;;12.44;66.68;95391.66;5114751;28;20261;-68
2022/05/12 01:47:35;;;;;;;70.10;46.20;;;;;;;12.40;66.50;95395.50;5115548;28;20188;-68
2022/05/12 01:50:02;;;;;;;66.05;43.70;;;;;;;12.38;66.75;95392.28;5114471;28;20213;-68
2022/05/12 01:52:31;;;;;;;67.60;45.58;;;;;;;12.37;66.72;95391.50;5114964;28;20196;-68
2022/05/12 01:54:58;;;;;;;86.47;54.42;;;;;;;12.35;65.81;95396.59;5115274;28;20207;-68
2022/05/12 01:57:24;;;;;;;82.72;53.22;;;;;;;12.28;65.66;95393.66;5114617;28;20203;-68
2022/05/12 01:59:53;;;;;;;84.88;52.95;;;;;;;12.19;65.62;95393.78;5114565;28;20224;-68
2022/05/12 02:02:20;;;;;;;82.25;53.00;;;;;;;12.18;66.20;95408.00;5114468;28;20206;-68
2022/05/12 02:04:48;;;;;;;73.47;49.13;;;;;;;12.13;66.60;95398.00;5114574;28;20215;-68
2022/05/12 02:07:15;;;;;;;70.60;47.33;;;;;;;12.13;66.31;95398.00;5115482;28;20183;-68
2022/05/12 02:09:42;;;;;;;71.70;46.40;;;;;;;12.14;66.40;95401.56;5115456;28;20194;-68
2022/05/12 02:12:11;;;;;;;60.97;43.60;;;;;;;12.14;66.48;95398.81;5115448;28;20534;-68
2022/05/12 02:14:37;;;;;;;61.40;41.17;;;;;;;12.10;66.86;95401.47;5118322;28;20203;-68
2022/05/12 02:17:06;;;;;;;39.03;25.50;;;;;;;12.11;66.98;95403.06;5118759;28;20530;-68
2022/05/12 02:19:32;;;;;;;18.60;14.30;;;;;;;12.13;66.78;95408.22;5119341;28;20188;-68
2022/05/12 02:22:02;;;;;;;48.83;35.38;;;;;;;12.11;66.70;95411.38;5118203;28;20214;-67
2022/05/12 02:24:29;;;;;;;47.35;29.92;;;;;;;12.08;67.10;95412.06;5118369;28;20215;-68
2022/05/12 02:26:56;;;;;;;56.42;39.13;;;;;;;12.06;66.74;95410.84;5118335;28;20202;-68
2022/05/12 02:29:23;;;;;;;53.67;36.95;;;;;;;12.00;66.86;95411.06;5119076;28;20638;-68
2022/05/12 02:31:51;;;;;;;58.08;36.42;;;;;;;11.96;67.09;95410.19;5119073;28;20184;-68
2022/05/12 02:34:20;;;;;;;49.95;36.03;;;;;;;11.92;66.98;95408.47;5118566;28;20203;-68
2022/05/12 02:36:59;;;;;;;56.60;36.60;;;;;;;11.90;66.67;95413.56;5119042;28;20184;-68
2022/05/12 02:39:27;;;;;;;54.30;35.10;;;;;;;11.85;66.83;95408.28;5117957;28;20245;-68
2022/05/12 02:41:54;;;;;;;50.65;33.58;;;;;;;11.85;67.05;95414.63;5119521;28;20603;-68
2022/05/12 02:44:21;;;;;;;54.97;33.25;;;;;;;11.85;66.60;95416.56;5118289;28;20219;-68
2022/05/12 02:46:47;;;;;;;49.78;32.47;;;;;;;11.82;66.98;95413.31;5118021;28;20191;-68
2022/05/12 02:49:14;;;;;;;45.67;30.60;;;;;;;11.83;66.98;95414.13;5117864;28;20192;-68
2022/05/12 02:51:44;;;;;;;36.25;23.15;;;;;;;11.83;67.40;95414.13;5118762;28;20196;-68
2022/05/12 02:54:14;;;;;;;36.33;26.10;;;;;;;11.79;67.27;95415.97;5118168;28;20195;-68
2022/05/12 02:56:41;;;;;;;42.03;28.90;;;;;;;11.76;67.17;95419.44;5117875;28;20253;-68
2022/05/12 02:59:08;;;;;;;47.17;28.33;;;;;;;11.74;67.75;95416.25;5118495;28;20191;-68
2022/05/12 03:01:36;;;;;;;50.00;32.65;;;;;;;11.71;67.33;95419.72;5118638;28;20191;-68
2022/05/12 03:04:03;;;;;;;57.42;36.97;;;;;;;11.68;67.48;95420.41;5118711;28;20200;-68
2022/05/12 03:06:30;;;;;;;64.88;41.38;;;;;;;11.66;67.06;95420.78;5117979;28;20191;-70
2022/05/12 03:08:59;;;;;;;71.03;41.38;;;;;;;11.66;67.22;95423.53;5118893;28;20195;-66
2022/05/12 03:11:28;;;;;;;67.45;38.58;;;;;;;11.66;67.49;95425.50;5118439;28;20241;-66
2022/05/12 03:13:55;;;;;;;60.17;36.90;;;;;;;11.68;67.56;95421.22;5117270;28;20195;-66
2022/05/12 03:16:22;;;;;;;47.45;29.20;;;;;;;11.67;67.98;95433.41;5118465;28;20171;-66
2022/05/12 03:18:51;;;;;;;30.33;21.50;;;;;;;11.71;68.15;95439.06;5118263;28;20192;-66
2022/05/12 03:21:18;;;;;;;21.23;14.05;;;;;;;11.72;67.89;95435.13;5117424;28;20210;-66
2022/05/12 03:23:45;;;;;;;31.35;21.27;;;;;;;11.74;68.19;95441.13;5116655;28;20638;-66
2022/05/12 03:26:16;;;;;;;43.58;26.95;;;;;;;11.75;68.00;95437.19;5117602;28;20195;-66
2022/05/12 03:28:43;;;;;;;52.92;31.23;;;;;;;11.73;67.75;95447.81;5117860;28;20207;-66
2022/05/12 03:31:13;;;;;;;50.13;31.00;;;;;;;11.71;67.55;95448.13;5118352;28;20266;-66
2022/05/12 03:33:41;;;;;;;58.13;31.02;;;;;;;11.64;67.75;95456.22;5116853;28;20199;-66
2022/05/12 03:36:08;;;;;;;52.97;29.88;;;;;;;11.62;67.91;95460.47;5118020;28;20180;-65
2022/05/12 03:38:38;;;;;;;50.40;28.02;;;;;;;11.60;67.70;95460.03;5117977;28;20207;-66
2022/05/12 03:41:06;;;;;;;48.53;27.08;;;;;;;11.55;68.16;95461.91;5117368;28;20231;-64
2022/05/12 03:46:18;;;;;;;51.13;25.55;;;;;;;11.52;68.02;95464.56;5116467;28;20210;-64
2022/05/12 03:48:45;;;;;;;57.92;26.33;;;;;;;11.56;68.39;95465.47;5117341;28;20576;-64
2022/05/12 03:51:12;;;;;;;43.72;24.05;;;;;;;11.59;68.33;95469.50;5116880;28;20199;-65
2022/05/12 03:53:40;;;;;;;45.80;24.00;;;;;;;11.61;68.22;95476.25;5116663;28;20256;-66
2022/05/12 03:56:07;;;;;;;40.55;24.08;;;;;;;11.60;68.25;95468.34;5117029;28;20204;-64
2022/05/12 03:58:36;;;;;;;41.35;23.02;;;;;;;11.62;68.32;95474.28;5116702;28;20202;-65
2022/05/12 04:01:04;;;;;;;51.60;24.52;;;;;;;11.64;68.25;95472.78;5116823;28;20199;-65
2022/05/12 04:03:32;;;;;;;45.85;24.52;;;;;;;11.70;68.32;95482.47;5116735;28;20203;-65
2022/05/12 04:06:01;;;;;;;44.45;22.45;;;;;;;11.68;68.42;95482.00;5116870;28;20212;-65
2022/05/12 04:08:28;;;;;;;40.03;21.73;;;;;;;11.68;68.86;95481.19;5117292;28;20245;-65
2022/05/12 04:10:55;;;;;;;36.53;19.50;;;;;;;11.69;68.68;95480.88;5117042;28;20184;-65
2022/05/12 04:13:22;;;;;;;26.92;15.05;;;;;;;11.77;68.39;95479.09;5116658;28;20187;-66
2022/05/12 04:15:50;;;;;;;23.67;14.65;;;;;;;11.82;69.07;95481.63;5116767;28;20192;-66
2022/05/12 04:18:17;;;;;;;22.63;14.75;;;;;;;11.85;68.51;95480.16;5116176;28;20215;-66
2022/05/12 04:20:44;;;;;;;25.02;15.05;;;;;;;11.91;68.19;95474.03;5116234;28;20195;-66
2022/05/12 04:23:11;;;;;;;27.48;16.13;;;;;;;11.96;68.24;95471.00;5116725;28;20183;-66
2022/05/12 04:25:38;;;;;;;28.45;16.08;;;;;;;11.98;68.83;95477.00;5116457;28;20204;-66
2022/05/12 04:28:05;;;;;;;27.58;15.65;;;;;;;11.98;68.71;95482.53;5116666;28;20190;-66
2022/05/12 04:30:33;;;;;;;20.80;14.63;;;;;;;12.00;68.79;95485.72;5116447;28;20220;-66
2022/05/12 04:35:42;;;;;;;20.33;13.55;;;;;;;12.02;69.16;95482.63;5113751;28;20198;-66
2022/05/12 04:38:10;;;;;;;18.30;12.57;;;;;;;12.04;68.58;95483.84;5116255;28;20261;-66
2022/05/12 04:40:37;;;;;;;22.98;13.73;;;;;;;12.08;69.01;95486.72;5115746;28;20231;-66
2022/05/12 04:43:11;;;;;;;20.30;14.25;;;;;;;12.07;68.50;95485.13;5116479;28;20191;-66
2022/05/12 04:45:38;;;;;;;23.08;14.32;;;;;;;12.16;68.73;95487.72;5115350;28;20243;-66
2022/05/12 04:48:10;;;;;;;20.58;13.55;;;;;;;12.19;68.25;95490.59;5116026;28;20282;-66
2022/05/12 04:50:40;;;;;;;21.00;13.30;;;;;;;12.22;68.43;95495.41;5115560;28;20196;-66
2022/05/12 04:53:08;;;;;;;10.80;9.02;;;;;;;12.26;67.67;95499.06;5116428;28;20176;-66
2022/05/12 04:55:35;;;;;;;11.52;8.18;;;;;;;12.32;67.40;95498.84;5115214;28;20280;-66
2022/05/12 04:58:03;;;;;;;9.55;7.93;;;;;;;12.37;67.88;95504.09;5115348;28;20202;-66
2022/05/12 05:00:31;;;;;;;8.73;6.20;;;;;;;12.44;66.54;95504.28;5115697;28;20191;-66
2022/05/12 05:02:58;;;;;;;8.68;6.28;;;;;;;12.50;67.50;95506.44;5115638;28;20211;-66
2022/05/12 05:05:27;;;;;;;7.00;5.88;;;;;;;12.53;66.84;95504.94;5115462;28;20216;-66
2022/05/12 05:07:54;;;;;;;6.85;6.18;;;;;;;12.54;67.26;95501.00;5115023;28;20188;-66
2022/05/12 05:10:22;;;;;;;6.32;5.70;;;;;;;12.53;67.20;95502.19;5115334;28;20195;-66
2022/05/12 05:12:49;;;;;;;6.25;5.65;;;;;;;12.53;67.11;95502.19;5114936;28;20191;-66
2022/05/12 05:15:17;;;;;;;6.45;5.68;;;;;;;12.60;66.88;95509.84;5115879;28;20202;-66
2022/05/12 05:17:44;;;;;;;6.20;5.18;;;;;;;12.63;66.99;95517.44;5115118;28;20616;-66
2022/05/12 05:20:14;;;;;;;6.57;6.07;;;;;;;12.62;66.22;95511.09;5115496;28;20210;-66
2022/05/12 05:22:42;;;;;;;6.90;6.20;;;;;;;12.67;66.51;95510.03;5116015;28;20180;-66
2022/05/12 05:25:09;;;;;;;6.78;6.07;;;;;;;12.71;66.64;95497.91;5115233;28;20215;-66
2022/05/12 05:27:37;;;;;;;6.85;6.25;;;;;;;12.77;66.89;95503.97;5115559;28;20180;-66
2022/05/12 05:30:05;;;;;;;6.80;6.20;;;;;;;12.90;66.60;95501.94;5114559;28;20196;-66
2022/05/12 05:32:32;;;;;;;7.70;6.50;;;;;;;13.00;65.88;95502.19;5115393;28;20199;-66
2022/05/12 05:34:59;;;;;;;7.47;6.75;;;;;;;13.10;65.59;95503.59;5115008;28;20187;-66
2022/05/12 05:37:26;;;;;;;10.95;8.35;;;;;;;13.17;65.47;95501.00;5115236;28;20195;-66
2022/05/12 05:39:54;;;;;;;9.45;8.55;;;;;;;13.24;64.88;95506.75;5114436;28;20242;-66
2022/05/12 05:42:21;;;;;;;9.98;9.07;;;;;;;13.27;64.68;95509.97;5114457;28;20620;-66
2022/05/12 05:44:48;;;;;;;13.13;9.75;;;;;;;13.29;65.56;95505.69;5115445;28;20207;-66
2022/05/12 05:47:15;;;;;;;11.15;8.80;;;;;;;13.28;65.53;95512.38;5120227;28;20199;-66
2022/05/12 05:49:42;;;;;;;15.25;13.73;;;;;;;13.30;65.56;95512.84;5122487;28;20203;-66
2022/05/12 05:54:55;;;;;;;15.15;13.60;;;;;;;13.30;65.05;95515.59;5122244;28;20202;-66
2022/05/12 05:57:24;;;;;;;14.43;13.02;;;;;;;13.34;65.16;95508.19;5122153;28;20194;-66
2022/05/12 05:59:53;;;;;;;13.55;12.23;;;;;;;13.39;65.11;95515.41;5122154;27;20210;-66
2022/05/12 06:02:20;;;;;;;13.68;11.77;;;;;;;13.43;65.24;95513.50;5122263;28;20207;-66
2022/05/12 06:04:47;;;;;;;13.98;12.57;;;;;;;13.48;65.22;95502.16;5121244;28;20267;-66
2022/05/12 06:07:14;;;;;;;11.90;10.63;;;;;;;13.50;65.74;95499.81;5121204;28;20184;-66
2022/05/12 06:09:42;;;;;;;11.00;9.20;;;;;;;13.55;65.69;95510.66;5122206;27;20180;-66
2022/05/12 06:12:11;;;;;;;10.38;9.27;;;;;;;13.60;65.66;95506.78;5122295;27;20196;-66
2022/05/12 06:14:38;;;;;;;10.43;9.35;;;;;;;13.63;65.58;95506.88;5121091;28;20212;-66
2022/05/12 06:17:06;;;;;;;11.05;10.10;;;;;;;13.68;64.94;95506.56;5122180;28;20234;-66
2022/05/12 06:19:32;;;;;;;10.88;9.80;;;;;;;13.76;64.66;95507.53;5122299;28;20186;-66
2022/05/12 06:22:00;;;;;;;10.13;9.18;;;;;;;13.84;64.55;95506.53;5121348;28;20192;-66
2022/05/12 06:24:26;;;;;;;9.88;8.93;;;;;;;13.93;64.68;95501.56;5120862;28;20201;-66
2022/05/12 06:26:53;;;;;;;10.85;9.35;;;;;;;14.00;64.81;95503.69;5120896;28;20200;-66
2022/05/12 06:29:22;;;;;;;10.30;9.38;;;;;;;14.03;64.49;95500.19;5121046;28;20195;-66
2022/05/12 06:31:49;;;;;;;8.00;7.38;;;;;;;14.08;64.06;95505.44;5122196;28;20184;-66
2022/05/12 06:34:16;;;;;;;10.25;8.70;;;;;;;14.14;63.52;95504.00;5121869;27;20537;-66
2022/05/12 06:36:44;;;;;;;9.10;8.07;;;;;;;14.21;62.83;95506.09;5121969;28;20176;-66
2022/05/12 06:39:10;;;;;;;10.25;7.55;;;;;;;14.30;62.59;95503.09;5122063;28;20242;-66
2022/05/12 06:41:37;;;;;;;8.77;7.88;;;;;;;14.38;62.61;95508.44;5120778;28;20199;-66
2022/05/12 06:44:05;;;;;;;8.75;7.95;;;;;;;14.44;62.39;95501.41;5121903;28;20199;-66
2022/05/12 06:46:33;;;;;;;9.77;8.73;;;;;;;14.48;62.36;95501.47;5121458;28;20203;-66
2022/05/12 06:49:02;;;;;;;9.32;8.43;;;;;;;14.51;62.00;95503.53;5120772;28;20195;-66
2022/05/12 06:51:29;;;;;;;8.85;7.95;;;;;;;14.61;61.54;95502.16;5121890;28;20252;-66
2022/05/12 06:53:56;;;;;;;8.50;7.70;;;;;;;14.63;61.43;95497.84;5120895;28;20196;-66
2022/05/12 06:56:23;;;;;;;8.77;7.97;;;;;;;14.68;61.70;95499.50;5122428;27;20240;-66
2022/05/12 06:58:53;;;;;;;9.60;8.75;;;;;;;14.72;61.10;95500.38;5118311;28;20210;-66
2022/05/12 07:01:20;;;;;;;9.07;8.15;;;;;;;14.80;61.15;95499.31;5118751;28;20254;-66
2022/05/12 07:03:49;;;;;;;8.57;7.82;;;;;;;14.88;61.33;95497.47;5118042;28;20622;-66
2022/05/12 07:06:16;;;;;;;9.52;7.97;;;;;;;14.91;61.50;95489.19;5117912;28;20219;-66
2022/05/12 07:08:43;;;;;;;9.25;8.35;;;;;;;14.97;60.76;95498.03;5117756;28;20200;-66
2022/05/12 07:11:10;;;;;;;9.95;8.48;;;;;;;15.03;60.86;95495.72;5118066;28;20184;-66
2022/05/12 07:13:42;;;;;;;10.77;9.60;;;;;;;15.13;60.28;95507.03;5118256;28;20188;-66
2022/05/12 07:16:15;;;;;;;9.63;8.82;;;;;;;15.14;59.86;95494.75;5118669;28;20532;-66
2022/05/12 07:18:42;;;;;;;10.73;9.48;;;;;;;15.16;60.16;95494.38;5118687;28;20288;-66
2022/05/12 07:26:41;;;;;;;9.60;8.70;;;;;;;15.33;59.78;95491.09;5117756;28;20527;-66
2022/05/12 07:29:10;;;;;;;10.65;9.40;;;;;;;15.39;59.72;95492.34;5117809;28;20216;-66
2022/05/12 07:31:37;;;;;;;12.95;9.75;;;;;;;15.46;59.64;95488.09;5118264;28;20212;-66
2022/05/12 07:34:05;;;;;;;11.32;9.82;;;;;;;15.53;60.18;95480.66;5116838;28;20654;-66
2022/05/12 07:36:35;;;;;;;11.10;10.00;;;;;;;15.74;59.57;95482.97;5116948;28;20202;-66
2022/05/12 07:39:02;;;;;;;12.65;9.43;;;;;;;15.82;58.59;95484.66;5116995;28;20202;-66
2022/05/12 07:41:28;;;;;;;12.40;9.55;;;;;;;15.83;58.26;95477.94;5117635;28;20191;-66
2022/05/12 07:43:56;;;;;;;10.05;9.15;;;;;;;15.83;58.09;95472.38;5116756;28;20579;-66
2022/05/12 07:46:25;;;;;;;10.95;9.82;;;;;;;15.88;58.01;95471.25;5116864;28;20235;-66
2022/05/12 07:48:55;;;;;;;10.48;8.95;;;;;;;15.93;58.17;95475.66;5117093;28;20196;-66
2022/05/12 07:51:22;;;;;;;10.85;9.48;;;;;;;16.03;58.30;95480.56;5117465;28;20192;-66
2022/05/12 07:53:50;;;;;;;10.85;9.82;;;;;;;16.18;59.29;95475.97;5116534;28;20249;-66
2022/05/12 07:56:20;;;;;;;13.77;11.65;;;;;;;16.30;58.80;95475.72;5117711;28;20196;-66
2022/05/12 07:58:47;;;;;;;11.88;10.73;;;;;;;16.37;58.21;95476.59;5116979;28;20192;-66
2022/05/12 08:01:15;;;;;;;12.50;11.20;;;;;;;16.44;57.87;95473.09;5117437;28;20202;-66
2022/05/12 08:03:41;;;;;;;11.85;10.65;;;;;;;16.53;57.26;95470.03;5116992;28;20234;-66
2022/05/12 08:06:09;;;;;;;16.90;11.18;;;;;;;16.64;57.93;95467.34;5116743;28;20216;-66
2022/05/12 08:08:36;;;;;;;13.90;12.38;;;;;;;16.93;57.05;95468.47;5117067;28;20188;-66
2022/05/12 08:11:06;;;;;;;14.77;13.25;;;;;;;17.11;55.43;95463.84;5115973;28;20625;-66
2022/05/12 08:13:33;;;;;;;11.20;10.20;;;;;;;17.20;54.53;95464.28;5117165;28;20184;-66
2022/05/12 08:16:01;;;;;;;12.68;11.35;;;;;;;17.34;55.60;95455.25;5116777;28;20574;-66
2022/05/12 08:18:28;;;;;;;13.52;11.70;;;;;;;17.43;55.29;95457.69;5115819;28;20195;-66
2022/05/12 08:20:56;;;;;;;11.10;10.10;;;;;;;17.63;55.30;95452.66;5116123;28;20206;-66
2022/05/12 08:23:23;;;;;;;12.50;10.88;;;;;;;17.74;54.45;95448.72;5116047;28;20200;-66
2022/05/12 08:25:50;;;;;;;12.93;11.40;;;;;;;17.85;54.66;95450.81;5115568;28;20238;-66
2022/05/12 08:28:20;;;;;;;12.82;9.93;;;;;;;18.25;53.52;95452.56;5116612;28;20191;-66
2022/05/12 08:30:48;;;;;;;10.75;9.48;;;;;;;18.36;53.31;95447.03;5116504;28;20495;-66
2022/05/12 08:33:16;;;;;;;9.52;8.60;;;;;;;18.51;53.21;95457.03;5116073;28;20196;-66
2022/05/12 08:35:43;;;;;;;10.30;8.20;;;;;;;18.46;52.70;95452.66;5116964;28;20180;-66
2022/05/12 08:38:11;;;;;;;11.35;8.85;;;;;;;18.45;51.13;95450.28;5116551;28;20608;-66
2022/05/12 08:40:46;;;;;;;5.80;5.22;;;;;;;18.72;48.50;95450.75;5116031;28;20231;-66
2022/05/12 08:43:17;;;;;;;7.47;5.47;;;;;;;18.88;49.24;95451.19;5116426;28;20211;-66
2022/05/12 08:46:08;;;;;;;6.07;5.28;;;;;;;19.04;47.51;95450.00;5116424;28;20207;-66
2022/05/12 08:48:41;;;;;;;6.93;6.10;;;;;;;19.34;49.07;95444.00;5115836;28;20199;-66
2022/05/12 08:51:17;;;;;;;5.38;4.97;;;;;;;19.55;47.27;95449.56;5115363;28;20196;-66
2022/05/12 08:53:50;;;;;;;7.22;5.07;;;;;;;19.59;46.83;95441.16;5115628;28;20199;-66
2022/05/12 08:56:19;;;;;;;6.07;5.20;;;;;;;19.70;47.48;95448.38;5116518;28;20192;-66
2022/05/12 08:58:46;;;;;;;5.35;4.95;;;;;;;19.79;48.49;95441.53;5116372;28;20195;-66
2022/05/12 09:01:19;;;;;;;6.85;5.63;;;;;;;19.85;47.29;95449.13;5115129;28;20184;-66
2022/05/12 09:03:55;;;;;;;9.23;6.00;;;;;;;19.87;45.15;95441.13;5115247;28;20203;-66
2022/05/12 09:06:27;;;;;;;5.90;5.30;;;;;;;19.91;44.81;95447.53;5115905;28;20209;-66
2022/05/12 09:08:59;;;;;;;5.68;5.20;;;;;;;20.04;44.62;95444.28;5116170;28;20172;-66
2022/05/12 09:11:29;;;;;;;5.22;4.82;;;;;;;20.02;45.39;95436.28;5116376;28;20329;-66
2022/05/12 09:13:59;;;;;;;6.00;4.95;;;;;;;20.11;44.23;95439.44;5115722;28;20280;-66
2022/05/12 09:16:30;;;;;;;5.57;5.05;;;;;;;20.21;44.83;95432.22;5115490;28;20294;-66
2022/05/12 09:18:57;;;;;;;5.38;4.90;;;;;;;20.24;44.04;95430.59;5115929;28;20191;-66
2022/05/12 09:21:27;;;;;;;4.95;4.55;;;;;;;20.29;43.96;95439.38;5114783;28;20268;-66
2022/05/12 09:23:56;;;;;;;5.22;4.82;;;;;;;20.32;42.98;95430.16;5115049;28;20256;-66
2022/05/12 09:26:48;;;;;;;5.60;4.93;;;;;;;20.56;44.02;95436.09;5115639;28;20222;-66
2022/05/12 09:29:19;;;;;;;5.65;5.15;;;;;;;20.71;44.71;95440.38;5116007;28;20266;-66
2022/05/12 09:31:49;;;;;;;5.80;5.30;;;;;;;20.83;43.58;95439.09;5114866;28;20208;-66
2022/05/12 09:34:26;;;;;;;5.57;4.90;;;;;;;20.92;43.13;95434.66;5114922;28;20203;-66
2022/05/12 09:36:52;;;;;;;5.60;5.00;;;;;;;21.11;42.21;95433.31;5116012;28;20194;-66
2022/05/12 09:39:34;;;;;;;6.18;5.13;;;;;;;21.35;41.29;95434.34;5115570;28;20195;-66
2022/05/12 09:42:02;;;;;;;5.85;5.18;;;;;;;21.57;41.88;95422.94;5114881;28;20207;-66
2022/05/12 09:44:31;;;;;;;5.70;5.07;;;;;;;21.53;41.87;95422.13;5115589;28;20224;-66
2022/05/12 09:47:01;;;;;;;6.78;5.07;;;;;;;21.59;42.11;95424.09;5115641;28;20235;-66
2022/05/12 09:49:34;;;;;;;5.88;5.25;;;;;;;21.79;41.80;95421.50;5114443;28;20203;-66
2022/05/12 09:52:20;;;;;;;5.93;5.07;;;;;;;22.01;41.72;95418.44;5114413;28;20196;-66
2022/05/12 09:54:47;;;;;;;6.97;5.28;;;;;;;22.11;40.23;95414.69;5115162;28;20265;-66
2022/05/12 09:57:17;;;;;;;5.25;4.85;;;;;;;22.26;39.36;95418.97;5114781;28;20188;-66
2022/05/12 09:59:46;;;;;;;5.30;4.90;;;;;;;22.32;40.94;95410.84;5097576;28;20260;-66
2022/05/12 10:08:10;;;;;;;4.82;4.43;;;;;;;22.40;38.62;95409.53;5114199;28;20299;-66
2022/05/12 10:10:37;;;;;;;5.43;4.75;;;;;;;22.59;37.77;95405.28;5115180;28;20633;-66
2022/05/12 10:13:07;;;;;;;4.90;4.50;;;;;;;22.67;38.42;95397.56;5114834;28;20208;-66
2022/05/12 10:15:36;;;;;;;5.40;4.90;;;;;;;22.83;38.49;95400.50;5115487;28;20192;-66
2022/05/12 10:18:06;;;;;;;6.80;4.50;;;;;;;22.79;36.78;95396.97;5114206;28;20527;-66
2022/05/12 10:20:37;;;;;;;5.35;4.85;;;;;;;22.93;38.51;95390.34;5115539;28;20199;-66
2022/05/12 10:23:08;;;;;;;5.97;5.20;;;;;;;22.91;38.33;95387.13;5114510;28;20223;-66
2022/05/12 10:25:56;;;;;;;6.13;5.22;;;;;;;22.87;37.58;95383.59;5114317;28;20237;-66
2022/05/12 10:28:27;;;;;;;8.20;7.38;;;;;;;23.04;36.92;95377.72;5115302;28;20190;-66
2022/05/12 10:30:59;;;;;;;7.10;6.45;;;;;;;23.18;37.75;95375.88;5114951;28;20190;-66
2022/05/12 10:33:38;;;;;;;5.50;5.00;;;;;;;23.24;34.82;95376.97;5115708;28;20206;-66
2022/05/12 10:36:16;;;;;;;4.32;4.03;;;;;;;23.20;33.77;95367.78;5119206;28;20199;-66
2022/05/12 10:38:48;;;;;;;6.43;5.82;;;;;;;23.18;35.66;95367.44;5119196;28;20183;-66
2022/05/12 10:41:18;;;;;;;7.85;7.03;;;;;;;23.20;34.55;95362.16;5118592;28;20651;-66
2022/05/12 10:44:07;;;;;;;16.58;11.27;;;;;;;23.22;35.35;95368.19;5118863;28;20203;-66
2022/05/12 10:46:39;;;;;;;8.65;7.80;;;;;;;23.27;35.54;95360.03;5118098;28;20215;-66
2022/05/12 10:49:14;;;;;;;6.82;6.22;;;;;;;23.33;35.23;95346.28;5118525;28;20197;-66
2022/05/12 10:51:48;;;;;;;8.02;6.55;;;;;;;23.42;35.50;95352.16;5117896;28;20299;-66
2022/05/12 10:54:24;;;;;;;6.40;5.78;;;;;;;23.55;33.68;95349.50;5118687;28;20191;-66
2022/05/12 10:56:59;;;;;;;5.60;4.80;;;;;;;23.55;33.81;95350.28;5117742;28;20199;-66
2022/05/12 10:59:46;;;;;;;4.10;3.78;;;;;;;23.60;35.05;95342.56;5118596;28;20195;-66
2022/05/12 11:02:16;;;;;;;6.40;5.78;;;;;;;23.58;33.96;95343.00;5118832;28;20180;-66
2022/05/12 11:04:47;;;;;;;4.82;4.40;;;;;;;23.60;33.96;95337.72;5117457;28;20196;-66
2022/05/12 11:07:17;;;;;;;5.60;5.10;;;;;;;23.70;33.71;95336.75;5117725;28;20215;-66
2022/05/12 11:09:50;;;;;;;6.00;5.50;;;;;;;23.98;35.20;95337.41;5118366;28;20188;-66
2022/05/12 11:12:21;;;;;;;5.90;5.40;;;;;;;24.05;36.43;95326.00;5118424;28;20187;-66
2022/05/12 11:14:54;;;;;;;5.43;4.82;;;;;;;23.99;34.21;95331.34;5117329;28;20196;-66
2022/05/12 11:17:30;;;;;;;6.20;5.68;;;;;;;23.90;34.44;95317.06;5117391;28;20286;-66
2022/05/12 11:20:03;;;;;;;5.25;4.75;;;;;;;24.06;35.71;95319.13;5117043;28;20196;-66
2022/05/12 11:22:37;;;;;;;5.88;4.43;;;;;;;24.24;35.24;95310.28;5117417;28;20196;-66
2022/05/12 11:25:08;;;;;;;5.63;5.20;;;;;;;24.32;35.01;95308.91;5117185;28;20615;-66
2022/05/12 11:27:43;;;;;;;6.00;5.45;;;;;;;24.39;34.16;95305.13;5116963;28;20238;-66
2022/05/12 11:30:32;;;;;;;6.38;5.80;;;;;;;24.40;34.94;95306.75;5117975;28;20240;-66
2022/05/12 11:33:24;;;;;;;6.32;5.85;;;;;;;24.52;32.85;95308.09;5117219;28;20192;-66
2022/05/12 11:35:54;;;;;;;6.43;5.72;;;;;;;24.48;33.54;95292.06;5116679;28;20200;-66
2022/05/12 11:38:44;;;;;;;5.65;5.15;;;;;;;24.58;34.64;95297.88;5117613;28;20191;-66
2022/05/12 11:41:37;;;;;;;4.50;4.10;;;;;;;24.68;32.48;95289.16;5117648;28;20235;-66
2022/05/12 11:44:26;;;;;;;5.47;5.00;;;;;;;24.74;33.29;95281.78;5116641;28;20192;-66
2022/05/12 11:47:26;;;;;;;7.32;6.30;;;;;;;24.88;34.23;95286.28;5117706;28;20207;-66
2022/05/12 11:50:08;;;;;;;7.70;6.15;;;;;;;24.84;33.76;95281.97;5117622;28;20183;-66
2022/05/12 11:52:44;;;;;;;5.75;5.20;;;;;;;24.85;32.78;95278.69;5116783;28;20188;-66
2022/05/12 11:55:23;;;;;;;6.45;5.70;;;;;;;24.83;32.92;95283.16;5116580;28;20297;-66